createdAt,value
2023-05-18T00:01:24.235Z,100508.94
2023-05-18T00:05:03.528Z,100376.53
2023-05-18T00:08:09.874Z,100520.19
2023-05-18T00:11:14.798Z,100516.50
2023-05-18T00:14:19.243Z,100525.16
2023-05-18T00:17:23.209Z,100514.31
2023-05-18T00:20:27.689Z,100512.81
2023-05-18T00:23:34.962Z,100501.69
2023-05-18T00:26:40.674Z,100532.25
2023-05-18T00:29:44.530Z,100531.25
2023-05-18T00:32:52.689Z,100530.06
2023-05-18T00:35:58.255Z,100531.19
2023-05-18T00:39:02.805Z,100533.94
2023-05-18T00:42:07.144Z,100521.53
2023-05-18T00:45:11.889Z,100523.13
2023-05-18T00:48:18.062Z,100540.53
2023-05-18T00:51:24.362Z,100543.34
2023-05-18T00:54:31.470Z,100542.00
2023-05-18T00:57:39.263Z,100543.72
2023-05-18T01:00:43.526Z,100512.16
2023-05-18T01:03:47.787Z,100509.03
2023-05-18T01:06:57.353Z,100473.28
2023-05-18T01:10:02.152Z,100520.44
2023-05-18T01:13:16.523Z,100546.09
2023-05-18T01:16:27.818Z,100488.22
2023-05-18T01:19:38.433Z,100549.34
2023-05-18T01:22:57.534Z,100553.06
2023-05-18T01:26:16.027Z,100553.19
2023-05-18T01:29:22.166Z,100547.59
2023-05-18T01:32:26.736Z,100550.09
2023-05-18T01:35:30.947Z,100551.97
2023-05-18T01:38:36.344Z,100552.00
2023-05-18T01:41:42.856Z,100562.31
2023-05-18T01:44:54.718Z,100569.88
2023-05-18T01:48:02.460Z,100559.13
2023-05-18T01:51:10.533Z,100514.72
2023-05-18T01:54:18.736Z,100550.88
2023-05-18T01:57:27.183Z,100562.31
2023-05-18T02:00:31.756Z,100558.00
2023-05-18T02:03:36.586Z,100546.78
2023-05-18T02:06:41.551Z,100556.34
2023-05-18T02:09:45.852Z,100555.09
2023-05-18T02:12:53.302Z,100567.13
2023-05-18T02:15:58.914Z,100536.63
2023-05-18T02:19:04.183Z,100560.34
2023-05-18T02:22:09.072Z,100551.06
2023-05-18T02:25:13.353Z,100546.28
2023-05-18T02:28:17.476Z,100528.84
2023-05-18T02:31:22.783Z,100551.25
2023-05-18T02:34:28.380Z,100512.50
2023-05-18T02:37:35.368Z,100555.88
2023-05-18T02:40:39.436Z,100554.06
2023-05-18T02:43:43.696Z,100555.28
2023-05-18T02:46:47.755Z,100500.13
2023-05-18T02:49:52.510Z,100514.19
2023-05-18T02:52:56.740Z,100535.38
2023-05-18T02:56:04.199Z,100528.94
2023-05-18T02:59:18.677Z,100527.97
2023-05-18T03:02:24.761Z,100520.28
2023-05-18T03:05:29.230Z,100494.34
2023-05-18T03:08:33.633Z,100524.38
2023-05-18T03:11:37.684Z,100487.78
2023-05-18T03:14:42.725Z,100519.56
2023-05-18T03:17:47.432Z,100504.19
2023-05-18T03:20:52.977Z,100506.97
2023-05-18T03:23:56.814Z,100493.50
2023-05-18T03:27:01.645Z,100500.63
2023-05-18T03:30:06.480Z,100507.16
2023-05-18T03:33:10.629Z,100506.81
2023-05-18T03:42:00.512Z,100497.78
2023-05-18T03:45:07.161Z,100501.88
2023-05-18T03:48:11.177Z,100499.63
2023-05-18T03:51:15.224Z,100498.94
2023-05-18T03:54:23.290Z,100495.63
2023-05-18T03:57:29.283Z,100476.25
2023-05-18T04:00:33.189Z,100496.81
2023-05-18T04:03:37.027Z,100497.53
2023-05-18T04:06:41.655Z,100500.25
2023-05-18T04:09:46.405Z,100494.44
2023-05-18T04:12:50.813Z,100469.72
2023-05-18T04:15:54.988Z,100488.44
2023-05-18T04:18:58.782Z,100488.56
2023-05-18T04:22:06.306Z,100482.53
2023-05-18T04:25:13.938Z,100467.38
2023-05-18T04:28:18.622Z,100463.44
2023-05-18T04:31:22.756Z,100476.13
2023-05-18T04:34:27.327Z,100479.44
2023-05-18T04:37:31.478Z,100481.78
2023-05-18T04:40:38.920Z,100455.31
2023-05-18T04:43:43.492Z,100478.09
2023-05-18T04:46:48.146Z,100480.06
2023-05-18T04:49:55.073Z,100482.41
2023-05-18T04:53:03.083Z,100478.56
2023-05-18T04:56:07.525Z,100480.06
2023-05-18T04:59:11.726Z,100491.63
2023-05-18T05:02:15.657Z,100472.78
2023-05-18T05:05:20.030Z,100484.00
2023-05-18T05:08:24.025Z,100443.66
2023-05-18T05:11:28.030Z,100477.72
2023-05-18T05:14:31.978Z,100460.88
2023-05-18T05:17:36.425Z,100471.22
2023-05-18T05:20:44.181Z,100450.63
2023-05-18T05:23:48.341Z,100466.50
2023-05-18T05:26:52.273Z,100461.09
2023-05-18T05:29:57.207Z,100453.00
2023-05-18T05:33:01.460Z,100444.13
2023-05-18T05:36:06.585Z,100444.63
2023-05-18T05:39:11.114Z,100453.97
2023-05-18T05:42:16.098Z,100452.59
2023-05-18T05:45:20.703Z,100451.50
2023-05-18T05:48:27.481Z,100449.66
2023-05-18T05:51:31.588Z,100455.31
2023-05-18T05:54:35.898Z,100448.94
2023-05-18T05:57:43.535Z,100456.91
2023-05-18T06:00:47.758Z,100437.47
2023-05-18T06:03:52.828Z,100459.63
2023-05-18T06:06:56.994Z,100446.94
2023-05-18T06:10:01.162Z,100448.56
2023-05-18T06:13:08.035Z,100453.25
2023-05-18T06:16:19.190Z,100405.19
2023-05-18T06:19:23.888Z,100412.81
2023-05-18T06:22:28.887Z,100461.63
2023-05-18T06:26:05.143Z,100430.13
2023-05-18T06:29:09.859Z,100470.69
2023-05-18T06:32:32.731Z,100449.91
2023-05-18T06:35:37.364Z,100462.66
2023-05-18T06:38:41.096Z,100452.75
2023-05-18T06:41:48.329Z,100450.44
2023-05-18T06:44:59.728Z,100448.47
2023-05-18T06:48:29.050Z,100461.03
2023-05-18T06:51:34.044Z,100472.34
2023-05-18T06:54:39.260Z,100471.53
2023-05-18T06:57:43.563Z,100456.53
2023-05-18T07:00:49.331Z,100464.69
2023-05-18T07:03:53.922Z,100462.69
2023-05-18T07:06:57.875Z,100453.16
2023-05-18T07:10:02.380Z,100460.84
2023-05-18T07:13:07.878Z,100420.25
2023-05-18T07:16:12.313Z,100460.16
2023-05-18T07:19:16.352Z,100464.34
2023-05-18T07:22:22.135Z,100463.59
2023-05-18T07:25:27.017Z,100459.44
2023-05-18T07:28:33.436Z,100450.13
2023-05-18T07:31:41.441Z,100465.56
2023-05-18T07:34:47.566Z,100478.63
2023-05-18T07:37:52.756Z,100474.34
2023-05-18T07:41:01.056Z,100483.44
2023-05-18T07:44:05.482Z,100476.66
2023-05-18T07:47:10.004Z,100448.78
2023-05-18T07:50:14.206Z,100483.25
2023-05-18T07:53:18.240Z,100460.47
2023-05-18T07:56:23.355Z,100472.50
2023-05-18T07:59:27.406Z,100453.13
2023-05-18T08:02:33.619Z,100480.13
2023-05-18T08:05:38.460Z,100492.53
2023-05-18T08:08:42.678Z,100483.91
2023-05-18T08:11:46.786Z,100492.97
2023-05-18T08:14:50.822Z,100489.78
2023-05-18T08:17:55.878Z,100481.69
2023-05-18T08:21:00.037Z,100502.97
2023-05-18T08:24:05.278Z,100491.66
2023-05-18T08:27:10.852Z,100511.75
2023-05-18T08:30:15.152Z,100504.84
2023-05-18T08:33:19.165Z,100492.94
2023-05-18T08:36:23.212Z,100486.03
2023-05-18T08:39:27.357Z,100510.88
2023-05-18T08:42:46.044Z,100504.09
2023-05-18T08:46:06.083Z,100516.09
2023-05-18T08:49:11.807Z,100513.69
2023-05-18T08:52:20.536Z,100520.56
2023-05-18T08:55:25.405Z,100497.91
2023-05-18T08:58:49.125Z,100509.31
2023-05-18T09:01:55.732Z,100508.38
2023-05-18T09:05:00.642Z,100501.56
2023-05-18T09:08:11.284Z,100507.41
2023-05-18T09:11:17.552Z,100516.03
2023-05-18T09:14:26.583Z,100520.44
2023-05-18T09:17:31.284Z,100507.78
2023-05-18T09:20:36.097Z,100501.94
2023-05-18T09:23:43.465Z,100517.28
2023-05-18T09:26:47.989Z,100512.94
2023-05-18T09:29:56.692Z,100490.59
2023-05-18T09:33:00.780Z,100524.22
2023-05-18T09:36:09.774Z,100526.63
2023-05-18T09:39:14.035Z,100509.69
2023-05-18T09:42:18.124Z,100533.44
2023-05-18T09:45:29.929Z,100532.19
2023-05-18T09:48:36.068Z,100514.63
2023-05-18T09:51:41.248Z,100542.59
2023-05-18T09:54:45.511Z,100543.13
2023-05-18T09:57:51.973Z,100539.59
2023-05-18T10:01:02.581Z,100552.06
2023-05-18T10:04:07.294Z,100548.47
2023-05-18T10:07:16.755Z,100559.84
2023-05-18T10:10:23.456Z,100553.34
2023-05-18T10:13:29.911Z,100561.56
2023-05-18T10:16:34.145Z,100570.59
2023-05-18T10:19:39.350Z,100576.72
2023-05-18T10:22:46.283Z,100570.75
2023-05-18T10:25:52.001Z,100582.16
2023-05-18T10:28:57.969Z,100570.19
2023-05-18T10:32:07.515Z,100582.22
2023-05-18T10:35:12.724Z,100569.22
2023-05-18T10:38:28.299Z,100603.50
2023-05-18T10:41:34.137Z,100601.22
2023-05-18T10:44:41.178Z,100607.44
2023-05-18T10:47:45.844Z,100603.22
2023-05-18T10:50:54.502Z,100592.19
2023-05-18T10:54:16.848Z,100615.06
2023-05-18T10:57:25.307Z,100602.94
2023-05-18T11:00:29.826Z,100568.88
2023-05-18T11:03:34.767Z,100600.22
2023-05-18T11:06:39.150Z,100620.91
2023-05-18T11:09:46.270Z,100613.56
2023-05-18T11:12:50.284Z,100640.88
2023-05-18T11:16:16.386Z,100653.25
2023-05-18T11:19:24.279Z,100650.06
2023-05-18T11:22:48.041Z,100654.06
2023-05-18T11:25:55.275Z,100659.69
2023-05-18T11:29:00.291Z,100621.13
2023-05-18T11:32:05.126Z,100662.91
2023-05-18T11:35:25.121Z,100661.31
2023-05-18T11:39:05.868Z,100671.75
2023-05-18T11:42:15.438Z,100674.31
2023-05-18T11:45:19.122Z,100669.94
2023-05-18T11:48:24.425Z,100680.06
2023-05-18T11:51:30.254Z,100680.50
2023-05-18T11:55:02.730Z,100687.84
2023-05-18T11:58:10.891Z,100687.78
2023-05-18T12:01:15.384Z,100673.84
2023-05-18T12:04:21.115Z,100663.31
2023-05-18T12:07:35.308Z,100658.06
2023-05-18T12:10:40.573Z,100644.50
2023-05-18T12:13:45.064Z,100682.31
2023-05-18T12:16:50.542Z,100687.91
2023-05-18T12:19:57.305Z,100656.25
2023-05-18T12:23:02.804Z,100661.19
2023-05-18T12:26:08.211Z,100688.31
2023-05-18T12:29:13.384Z,100700.09
2023-05-18T12:32:18.181Z,100646.88
2023-05-18T12:35:29.516Z,100702.22
2023-05-18T12:38:35.296Z,100675.66
2023-05-18T12:41:38.900Z,100700.53
2023-05-18T12:44:46.001Z,100673.44
2023-05-18T12:47:55.490Z,100673.78
2023-05-18T12:50:59.782Z,100682.50
2023-05-18T12:54:07.846Z,100666.22
2023-05-18T12:57:13.339Z,100662.97
2023-05-18T13:00:21.215Z,100708.53
2023-05-18T13:03:25.257Z,100697.53
2023-05-18T13:06:29.412Z,100711.91
2023-05-18T13:09:33.264Z,100669.50
2023-05-18T13:12:42.203Z,100714.41
2023-05-18T13:15:47.690Z,100701.97
2023-05-18T13:18:57.045Z,100714.25
2023-05-18T13:22:01.846Z,100672.25
2023-05-18T13:25:06.369Z,100690.53
2023-05-18T13:28:12.138Z,100709.81
2023-05-18T13:31:15.943Z,100707.28
2023-05-18T13:34:19.763Z,100679.06
2023-05-18T13:37:23.828Z,100600.91
2023-05-18T13:40:28.433Z,100681.41
2023-05-18T13:43:33.694Z,100685.13
2023-05-18T13:46:38.531Z,100675.44
2023-05-18T13:49:42.313Z,100703.91
2023-05-18T13:52:47.393Z,100708.25
2023-05-18T13:55:51.687Z,100719.00
2023-05-18T13:58:55.573Z,100699.31
2023-05-18T14:01:59.603Z,100705.72
2023-05-18T14:05:04.472Z,100711.72
2023-05-18T14:08:08.385Z,100701.69
2023-05-18T14:11:12.255Z,100716.69
2023-05-18T14:14:16.215Z,100725.41
2023-05-18T14:17:20.229Z,100716.84
2023-05-18T14:20:24.070Z,100720.75
2023-05-18T14:23:28.251Z,100709.63
2023-05-18T14:26:32.424Z,100723.03
2023-05-18T14:29:36.318Z,100685.13
2023-05-18T14:32:40.359Z,100735.16
2023-05-18T14:35:44.193Z,100724.09
2023-05-18T14:38:47.987Z,100736.91
2023-05-18T14:41:52.339Z,100727.38
2023-05-18T14:44:56.618Z,100743.59
2023-05-18T14:48:00.441Z,100717.72
2023-05-18T14:51:04.510Z,100722.03
2023-05-18T14:54:08.439Z,100686.94
2023-05-18T14:57:12.133Z,100688.66
2023-05-18T15:00:16.327Z,100733.81
2023-05-18T15:03:20.347Z,100709.66
2023-05-18T15:06:28.871Z,100710.34
2023-05-18T15:09:33.085Z,100725.31
2023-05-18T15:12:36.977Z,100729.16
2023-05-18T15:15:40.677Z,100733.66
2023-05-18T15:18:44.724Z,100746.94
2023-05-18T15:21:49.403Z,100736.34
2023-05-18T15:24:53.527Z,100713.78
2023-05-18T15:27:57.603Z,100727.72
2023-05-18T15:31:01.339Z,100728.56
2023-05-18T15:34:05.350Z,100733.84
2023-05-18T15:37:09.302Z,100738.91
2023-05-18T15:40:22.179Z,100733.59
2023-05-18T15:43:29.156Z,100732.97
2023-05-18T15:46:36.381Z,100737.53
2023-05-18T15:49:45.898Z,100736.88
2023-05-18T15:52:52.909Z,100739.59
2023-05-18T15:55:59.291Z,100736.88
2023-05-18T15:59:04.169Z,100730.94
2023-05-18T16:02:11.251Z,100730.06
2023-05-18T16:05:14.969Z,100719.66
2023-05-18T16:08:18.935Z,100719.59
2023-05-18T16:11:25.462Z,100727.53
2023-05-18T16:14:29.291Z,100724.97
2023-05-18T16:17:32.925Z,100717.94
2023-05-18T16:20:36.817Z,100691.69
2023-05-18T16:23:40.696Z,100729.53
2023-05-18T16:26:45.024Z,100726.19
2023-05-18T16:29:49.580Z,100725.34
2023-05-18T16:32:55.492Z,100725.34
2023-05-18T16:35:59.262Z,100717.69
2023-05-18T16:39:03.851Z,100717.59
2023-05-18T16:42:08.397Z,100723.78
2023-05-18T16:45:12.320Z,100721.03
2023-05-18T16:48:16.390Z,100720.97
2023-05-18T16:51:20.318Z,100719.22
2023-05-18T16:54:24.207Z,100713.03
2023-05-18T16:57:28.464Z,100721.88
2023-05-18T17:00:33.379Z,100717.53
2023-05-18T17:03:38.916Z,100715.06
2023-05-18T17:06:45.802Z,100712.41
2023-05-18T17:09:49.446Z,100714.28
2023-05-18T17:12:53.385Z,100708.97
2023-05-18T17:15:57.362Z,100717.03
2023-05-18T17:19:07.118Z,100718.88
2023-05-18T17:22:11.784Z,100718.88
2023-05-18T17:25:19.365Z,100721.47
2023-05-18T17:28:29.427Z,100683.75
2023-05-18T17:31:35.793Z,100710.09
2023-05-18T17:34:41.146Z,100737.28
2023-05-18T17:37:45.025Z,100717.00
2023-05-18T17:40:49.227Z,100745.28
2023-05-18T17:43:53.172Z,100734.88
2023-05-18T17:46:58.119Z,100736.63
2023-05-18T17:50:02.499Z,100712.03
2023-05-18T17:53:06.958Z,100730.38
2023-05-18T17:56:15.119Z,100747.84
2023-05-18T17:59:19.078Z,100731.16
2023-05-18T18:02:25.936Z,100744.31
2023-05-18T18:05:30.516Z,100746.34
2023-05-18T18:08:35.343Z,100746.53
2023-05-18T18:11:39.310Z,100741.13
2023-05-18T18:14:43.370Z,100744.56
2023-05-18T18:17:47.396Z,100718.34
2023-05-18T18:20:51.820Z,100743.00
2023-05-18T18:23:58.267Z,100740.41
2023-05-18T18:27:05.125Z,100735.16
2023-05-18T18:30:09.812Z,100753.63
2023-05-18T18:33:17.151Z,100757.09
2023-05-18T18:36:22.798Z,100752.72
2023-05-18T18:39:29.091Z,100744.00
2023-05-18T18:42:33.830Z,100751.88
2023-05-18T18:45:37.940Z,100748.38
2023-05-18T18:48:42.045Z,100728.97
2023-05-18T18:51:48.764Z,100755.31
2023-05-18T18:54:53.329Z,100759.69
2023-05-18T18:58:00.345Z,100761.59
2023-05-18T19:01:05.208Z,100754.63
2023-05-18T19:04:09.258Z,100759.91
2023-05-18T19:07:13.180Z,100758.97
2023-05-18T19:10:17.599Z,100742.31
2023-05-18T19:13:24.862Z,100756.31
2023-05-18T19:16:29.411Z,100758.91
2023-05-18T19:19:33.836Z,100659.91
2023-05-18T19:22:38.144Z,100737.03
2023-05-18T19:25:42.352Z,100752.88
2023-05-18T19:28:46.816Z,100721.34
2023-05-18T19:31:50.998Z,100764.38
2023-05-18T19:34:55.348Z,100672.25
2023-05-18T19:37:59.794Z,100771.31
2023-05-18T19:41:03.846Z,100765.19
2023-05-18T19:44:08.069Z,100745.00
2023-05-18T19:47:12.639Z,100769.47
2023-05-18T19:50:16.880Z,100744.03
2023-05-18T19:53:21.277Z,100764.25
2023-05-18T19:56:26.229Z,100772.22
2023-05-18T19:59:30.418Z,100791.50
2023-05-18T20:02:34.421Z,100726.47
2023-05-18T20:05:39.302Z,100778.13
2023-05-18T20:08:44.375Z,100781.56
2023-05-18T20:11:48.502Z,100739.47
2023-05-18T20:14:52.565Z,100781.56
2023-05-18T20:17:57.084Z,100756.13
2023-05-18T20:21:01.274Z,100764.78
2023-05-18T20:24:05.503Z,100786.84
2023-05-18T20:27:09.801Z,100763.06
2023-05-18T20:30:13.937Z,100765.75
2023-05-18T20:33:18.404Z,100786.69
2023-05-18T20:36:22.611Z,100774.25
2023-05-18T20:39:27.598Z,100750.63
2023-05-18T20:42:39.463Z,100774.13
2023-05-18T20:45:43.818Z,100780.16
2023-05-18T20:48:48.172Z,100788.88
2023-05-18T20:51:52.639Z,100788.06
2023-05-18T20:54:56.814Z,100760.94
2023-05-18T20:58:03.490Z,100737.16
2023-05-18T21:01:11.733Z,100789.50
2023-05-18T21:04:17.283Z,100760.53
2023-05-18T21:07:24.889Z,100776.28
2023-05-18T21:10:29.470Z,100744.75
2023-05-18T21:13:34.024Z,100781.31
2023-05-18T21:16:38.433Z,100772.28
2023-05-18T21:19:43.370Z,100796.41
2023-05-18T21:22:47.787Z,100792.00
2023-05-18T21:25:52.334Z,100794.34
2023-05-18T21:28:56.357Z,100778.41
2023-05-18T21:32:00.586Z,100794.94
2023-05-18T21:35:04.958Z,100767.38
2023-05-18T21:38:09.348Z,100791.56
2023-05-18T21:41:16.169Z,100790.44
2023-05-18T21:44:22.854Z,100782.34
2023-05-18T21:47:27.316Z,100806.22
2023-05-18T21:50:35.491Z,100808.34
2023-05-18T21:53:39.883Z,100816.44
2023-05-18T21:56:44.076Z,100814.28
2023-05-18T21:59:48.156Z,100825.28
2023-05-18T22:02:52.384Z,100817.44
2023-05-18T22:05:56.585Z,100808.84
2023-05-18T22:09:00.640Z,100818.34
2023-05-18T22:12:04.869Z,100826.00
2023-05-18T22:15:11.107Z,100826.91
2023-05-18T22:18:15.966Z,100829.63
2023-05-18T22:21:52.547Z,100827.78
2023-05-18T22:24:56.785Z,100825.34
2023-05-18T22:28:03.798Z,100806.34
2023-05-18T22:31:08.157Z,100829.72
2023-05-18T22:34:15.157Z,100827.41
2023-05-18T22:37:19.105Z,100830.00
2023-05-18T22:40:23.692Z,100798.59
2023-05-18T22:43:27.710Z,100824.28
2023-05-18T22:46:34.908Z,100836.72
2023-05-18T22:49:44.083Z,100850.19
2023-05-18T22:52:48.499Z,100860.59
2023-05-18T22:55:55.718Z,100859.69
2023-05-18T22:58:59.826Z,100870.53
2023-05-18T23:02:04.632Z,100868.50
2023-05-18T23:05:09.185Z,100879.19
2023-05-18T23:08:14.921Z,100856.78
2023-05-18T23:11:19.274Z,100869.28
2023-05-18T23:14:26.607Z,100877.78
2023-05-18T23:17:31.318Z,100878.56
2023-05-18T23:20:36.671Z,100885.81
2023-05-18T23:23:40.487Z,100874.03
2023-05-18T23:26:45.712Z,100895.81
2023-05-18T23:29:49.541Z,100888.44
2023-05-18T23:32:54.072Z,100882.31
2023-05-18T23:36:03.510Z,100877.84
2023-05-18T23:39:08.098Z,100869.31
2023-05-18T23:42:13.721Z,100886.75
2023-05-18T23:45:18.025Z,100868.47
2023-05-18T23:48:22.493Z,100868.63
2023-05-18T23:51:30.558Z,100867.03
2023-05-18T23:54:35.799Z,100873.72
2023-05-18T23:57:40.804Z,100871.72
